createdAt,value
2022-10-24T00:00:23.838Z,1.97
2022-10-24T00:02:55.322Z,2.10
2022-10-24T00:05:26.869Z,2.30
2022-10-24T00:07:58.137Z,2.37
2022-10-24T00:10:29.473Z,2.30
2022-10-24T00:13:00.750Z,2.40
2022-10-24T00:15:32.233Z,2.70
2022-10-24T00:18:04.266Z,1.93
2022-10-24T00:20:37.078Z,2.07
2022-10-24T00:23:09.506Z,2.33
2022-10-24T00:25:40.850Z,2.07
2022-10-24T00:28:12.148Z,2.00
2022-10-24T00:30:43.388Z,1.90
2022-10-24T00:33:14.790Z,2.13
2022-10-24T00:35:46.546Z,2.27
2022-10-24T00:38:17.991Z,2.40
2022-10-24T00:40:49.400Z,1.67
2022-10-24T00:43:23.806Z,2.57
2022-10-24T00:45:57.777Z,2.23
2022-10-24T00:48:37.746Z,2.03
2022-10-24T00:51:28.213Z,2.10
2022-10-24T00:54:05.549Z,2.43
2022-10-24T00:56:45.344Z,2.07
2022-10-24T00:59:17.972Z,2.23
2022-10-24T01:01:49.313Z,2.07
2022-10-24T01:04:20.616Z,2.10
2022-10-24T01:07:07.624Z,2.03
2022-10-24T01:10:02.904Z,2.00
2022-10-24T01:12:52.917Z,1.77
2022-10-24T01:15:51.161Z,1.93
2022-10-24T01:18:32.581Z,1.83
2022-10-24T01:21:25.407Z,1.97
2022-10-24T01:24:08.672Z,2.23
2022-10-24T01:27:12.288Z,2.10
2022-10-24T01:29:52.437Z,2.40
2022-10-24T01:32:42.179Z,2.00
2022-10-24T01:35:55.270Z,1.97
2022-10-24T01:38:32.257Z,2.40
2022-10-24T01:41:08.104Z,2.27
2022-10-24T01:43:49.649Z,1.75
2022-10-24T01:46:24.991Z,2.10
2022-10-24T01:49:05.477Z,2.20
2022-10-24T01:51:38.448Z,2.57
2022-10-24T01:54:11.947Z,1.90
2022-10-24T01:56:43.232Z,1.93
2022-10-24T01:59:29.469Z,2.40
2022-10-24T02:02:06.191Z,2.05
2022-10-24T02:04:44.719Z,1.70
2022-10-24T02:07:19.538Z,2.20
2022-10-24T02:09:56.678Z,2.00
2022-10-24T02:12:29.378Z,2.50
2022-10-24T02:15:06.774Z,2.43
2022-10-24T02:17:38.298Z,2.13
2022-10-24T02:20:11.479Z,2.27
2022-10-24T02:22:50.774Z,2.20
2022-10-24T02:25:27.232Z,1.93
2022-10-24T02:28:15.144Z,2.30
2022-10-24T02:30:52.322Z,1.80
2022-10-24T02:33:26.255Z,2.03
2022-10-24T02:35:58.978Z,2.00
2022-10-24T02:38:34.140Z,2.07
2022-10-24T02:41:11.222Z,2.10
2022-10-24T02:43:44.301Z,2.10
2022-10-24T02:46:18.347Z,2.33
2022-10-24T02:48:56.038Z,2.60
2022-10-24T02:51:31.807Z,2.00
2022-10-24T02:54:05.140Z,2.90
2022-10-24T02:56:43.182Z,2.10
2022-10-24T02:59:14.505Z,2.20
2022-10-24T03:01:45.903Z,2.37
2022-10-24T03:04:17.731Z,2.57
2022-10-24T03:06:48.998Z,2.47
2022-10-24T03:09:20.367Z,2.93
2022-10-24T03:11:51.643Z,2.30
2022-10-24T03:14:22.927Z,2.40
2022-10-24T03:16:54.253Z,2.10
2022-10-24T03:19:25.539Z,2.73
2022-10-24T03:21:56.847Z,2.30
2022-10-24T03:24:43.342Z,2.40
2022-10-24T03:27:15.943Z,2.57
2022-10-24T03:29:47.209Z,3.17
2022-10-24T03:32:18.508Z,2.77
2022-10-24T03:34:49.886Z,2.60
2022-10-24T03:37:21.170Z,2.60
2022-10-24T03:39:52.530Z,2.53
2022-10-24T03:42:23.804Z,3.10
2022-10-24T03:44:55.113Z,2.60
2022-10-24T03:47:26.574Z,2.70
2022-10-24T03:49:57.959Z,2.40
2022-10-24T03:52:29.261Z,2.67
2022-10-24T03:55:00.600Z,2.67
2022-10-24T03:57:31.846Z,2.47
2022-10-24T04:00:05.490Z,2.63
2022-10-24T04:02:38.040Z,2.90
2022-10-24T04:05:12.333Z,2.97
2022-10-24T04:07:43.954Z,2.17
2022-10-24T04:10:15.425Z,2.50
2022-10-24T04:12:46.910Z,2.70
2022-10-24T04:15:18.343Z,2.40
2022-10-24T04:17:49.736Z,2.53
2022-10-24T04:20:22.918Z,2.70
2022-10-24T04:22:54.236Z,2.63
2022-10-24T04:25:25.557Z,2.67
2022-10-24T04:27:56.831Z,2.80
2022-10-24T04:30:29.441Z,3.07
2022-10-24T04:33:00.766Z,3.20
2022-10-24T04:35:32.166Z,2.77
2022-10-24T04:38:03.453Z,2.93
2022-10-24T04:40:34.793Z,2.77
2022-10-24T04:43:06.157Z,2.97
2022-10-24T04:45:37.417Z,2.67
2022-10-24T04:48:08.793Z,2.63
2022-10-24T04:50:41.892Z,2.87
2022-10-24T04:53:13.650Z,2.50
2022-10-24T04:55:44.989Z,2.53
2022-10-24T04:58:16.295Z,3.23
2022-10-24T05:00:49.727Z,3.37
2022-10-24T05:03:23.187Z,2.90
2022-10-24T05:05:54.513Z,3.23
2022-10-24T05:08:25.828Z,2.40
2022-10-24T05:10:57.140Z,2.57
2022-10-24T05:13:31.725Z,2.80
2022-10-24T05:16:06.373Z,2.30
2022-10-24T05:18:37.638Z,2.90
2022-10-24T05:21:08.909Z,3.80
2022-10-24T05:23:40.209Z,3.07
2022-10-24T05:26:11.532Z,2.93
2022-10-24T05:28:42.875Z,3.00
2022-10-24T05:31:14.167Z,2.90
2022-10-24T05:33:45.525Z,2.47
2022-10-24T05:36:16.866Z,2.67
2022-10-24T05:38:48.130Z,2.80
2022-10-24T05:41:19.429Z,2.77
2022-10-24T05:43:50.749Z,2.77
2022-10-24T05:46:22.027Z,2.60
2022-10-24T05:48:53.418Z,2.73
2022-10-24T05:51:24.734Z,3.50
2022-10-24T05:53:56.170Z,2.60
2022-10-24T05:56:27.459Z,3.23
2022-10-24T05:58:59.011Z,2.47
2022-10-24T06:01:31.368Z,2.60
2022-10-24T06:04:02.922Z,3.17
2022-10-24T06:06:44.692Z,2.90
2022-10-24T06:09:15.974Z,2.93
2022-10-24T06:11:47.346Z,3.30
2022-10-24T06:14:18.647Z,3.77
2022-10-24T06:16:49.926Z,3.07
2022-10-24T06:19:21.974Z,3.13
2022-10-24T06:21:53.237Z,3.60
2022-10-24T06:24:24.518Z,3.60
2022-10-24T06:26:56.208Z,2.93
2022-10-24T06:29:27.499Z,2.80
2022-10-24T06:31:59.221Z,3.53
2022-10-24T06:34:30.568Z,3.20
2022-10-24T06:37:02.326Z,2.90
2022-10-24T06:39:33.598Z,3.23
2022-10-24T06:42:04.958Z,3.40
2022-10-24T06:44:41.737Z,2.87
2022-10-24T06:47:13.117Z,2.60
2022-10-24T06:49:44.369Z,3.50
2022-10-24T06:52:15.664Z,4.07
2022-10-24T06:54:47.067Z,2.87
2022-10-24T06:57:18.422Z,2.83
2022-10-24T06:59:49.706Z,3.10
2022-10-24T07:02:21.186Z,2.77
2022-10-24T07:04:52.666Z,2.50
2022-10-24T07:07:24.113Z,2.80
2022-10-24T07:09:57.534Z,2.77
2022-10-24T07:12:28.797Z,2.90
2022-10-24T07:15:00.054Z,2.80
2022-10-24T07:17:31.531Z,2.90
2022-10-24T07:20:02.950Z,2.80
2022-10-24T07:22:34.385Z,3.20
2022-10-24T07:25:06.840Z,2.63
2022-10-24T07:27:38.827Z,2.47
2022-10-24T07:30:16.374Z,2.73
2022-10-24T07:32:48.656Z,2.93
2022-10-24T07:35:19.952Z,2.50
2022-10-24T07:37:51.978Z,2.83
2022-10-24T07:40:23.485Z,3.57
2022-10-24T07:42:54.893Z,2.87
2022-10-24T07:45:27.848Z,2.67
2022-10-24T07:47:59.924Z,2.90
2022-10-24T07:50:31.285Z,2.70
2022-10-24T07:53:02.627Z,2.73
2022-10-24T07:55:33.888Z,2.90
2022-10-24T07:58:05.473Z,2.60
2022-10-24T08:00:39.092Z,2.60
2022-10-24T08:03:13.891Z,2.90
2022-10-24T08:05:45.424Z,2.80
2022-10-24T08:08:37.019Z,2.40
2022-10-24T08:11:10.222Z,2.63
2022-10-24T08:13:41.883Z,2.20
2022-10-24T08:16:16.290Z,2.20
2022-10-24T08:18:49.021Z,2.37
2022-10-24T08:21:22.325Z,2.87
2022-10-24T08:23:55.050Z,3.00
2022-10-24T08:26:26.742Z,2.30
2022-10-24T08:28:58.308Z,2.43
2022-10-24T08:31:29.611Z,1.90
2022-10-24T08:34:00.961Z,1.60
2022-10-24T08:36:35.531Z,2.27
2022-10-24T08:39:06.792Z,2.13
2022-10-24T08:41:41.240Z,2.80
2022-10-24T08:44:33.097Z,1.80
2022-10-24T08:47:15.152Z,2.13
2022-10-24T08:50:05.729Z,2.10
2022-10-24T08:52:43.158Z,2.83
2022-10-24T08:55:30.877Z,2.43
2022-10-24T08:58:16.494Z,2.13
2022-10-24T09:00:50.650Z,2.10
2022-10-24T09:03:55.028Z,2.03
2022-10-24T09:06:27.093Z,1.80
2022-10-24T09:09:02.186Z,1.92
2022-10-24T09:11:59.347Z,1.93
2022-10-24T09:14:33.909Z,2.00
2022-10-24T09:17:22.193Z,2.05
2022-10-24T09:19:56.627Z,2.20
2022-10-24T09:22:32.113Z,2.38
2022-10-24T09:25:06.743Z,2.03
2022-10-24T09:27:40.916Z,1.85
2022-10-24T09:30:18.400Z,2.63
2022-10-24T09:32:49.791Z,2.33
2022-10-24T09:35:28.049Z,2.15
2022-10-24T09:38:38.380Z,1.77
2022-10-24T09:41:15.645Z,1.38
2022-10-24T09:43:53.284Z,1.27
2022-10-24T09:46:35.989Z,1.80
2022-10-24T09:49:22.472Z,1.92
2022-10-24T09:54:37.348Z,2.10
2022-10-24T09:57:16.744Z,1.70
2022-10-24T09:59:57.642Z,1.95
2022-10-24T10:02:37.578Z,1.63
2022-10-24T10:05:08.843Z,1.38
2022-10-24T10:07:43.303Z,1.63
2022-10-24T10:10:31.827Z,1.52
2022-10-24T10:13:12.539Z,1.23
2022-10-24T10:15:43.780Z,1.55
2022-10-24T10:18:37.904Z,1.67
2022-10-24T10:21:23.122Z,1.52
2022-10-24T10:23:56.497Z,1.63
2022-10-24T10:26:40.855Z,1.63
2022-10-24T10:29:18.177Z,2.17
2022-10-24T10:31:57.857Z,1.52
2022-10-24T10:34:47.048Z,1.60
2022-10-24T10:37:31.042Z,1.45
2022-10-24T10:40:19.467Z,1.50
2022-10-24T10:42:56.653Z,1.98
2022-10-24T10:45:42.907Z,2.00
2022-10-24T10:48:20.286Z,1.10
2022-10-24T10:51:25.516Z,1.80
2022-10-24T10:54:12.234Z,0.90
2022-10-24T10:56:52.021Z,1.20
2022-10-24T10:59:38.121Z,1.30
2022-10-24T11:02:27.822Z,1.45
2022-10-24T11:05:17.980Z,1.10
2022-10-24T11:08:06.482Z,1.10
2022-10-24T11:10:51.847Z,1.38
2022-10-24T11:13:40.690Z,1.13
2022-10-24T11:16:18.911Z,1.08
2022-10-24T11:18:52.791Z,1.25
2022-10-24T11:21:25.972Z,1.63
2022-10-24T11:24:09.807Z,1.08
2022-10-24T11:26:53.010Z,1.85
2022-10-24T11:29:34.673Z,1.25
2022-10-24T11:32:26.787Z,1.00
2022-10-24T11:35:16.497Z,0.90
2022-10-24T11:37:50.966Z,1.10
2022-10-24T11:40:23.709Z,0.90
2022-10-24T11:43:15.335Z,1.25
2022-10-24T11:46:17.379Z,1.65
2022-10-24T11:48:57.667Z,1.15
2022-10-24T11:51:43.323Z,1.45
2022-10-24T11:54:21.824Z,1.67
2022-10-24T11:57:05.940Z,1.10
2022-10-24T11:59:40.979Z,0.90
2022-10-24T12:02:32.735Z,1.05
2022-10-24T12:05:28.970Z,1.33
2022-10-24T12:08:12.125Z,1.33
2022-10-24T12:11:07.799Z,0.93
2022-10-24T12:13:46.094Z,1.40
2022-10-24T12:16:37.389Z,1.55
2022-10-24T12:19:16.071Z,1.00
2022-10-24T12:21:54.350Z,1.08
2022-10-24T12:24:32.763Z,0.90
2022-10-24T12:27:31.317Z,1.30
2022-10-24T12:30:08.933Z,1.27
2022-10-24T12:32:46.284Z,1.00
2022-10-24T12:35:35.115Z,1.20
2022-10-24T12:38:35.701Z,0.90
2022-10-24T12:41:32.967Z,0.90
2022-10-24T12:44:24.320Z,1.58
2022-10-24T12:46:55.660Z,1.80
2022-10-24T12:49:29.105Z,1.65
2022-10-24T12:52:32.418Z,0.88
2022-10-24T12:55:03.894Z,0.88
2022-10-24T12:57:45.643Z,1.10
2022-10-24T13:00:24.957Z,1.20
2022-10-24T13:03:13.753Z,1.60
2022-10-24T13:06:23.484Z,0.93
2022-10-24T13:09:12.657Z,1.73
2022-10-24T13:12:03.097Z,1.40
2022-10-24T13:14:37.207Z,1.13
2022-10-24T13:17:29.516Z,1.42
2022-10-24T13:20:17.285Z,1.40
2022-10-24T13:22:50.864Z,1.00
2022-10-24T13:25:34.266Z,1.55
2022-10-24T13:28:22.071Z,1.73
2022-10-24T13:30:59.482Z,1.20
2022-10-24T13:33:33.606Z,1.20
2022-10-24T13:36:24.231Z,0.93
2022-10-24T13:39:01.637Z,1.40
2022-10-24T13:41:35.957Z,1.20
2022-10-24T13:44:22.970Z,1.00
2022-10-24T13:47:10.503Z,1.20
2022-10-24T13:50:20.639Z,1.17
2022-10-24T13:52:57.887Z,1.13
2022-10-24T13:55:37.242Z,1.40
2022-10-24T13:58:11.069Z,0.95
2022-10-24T14:00:45.827Z,1.10
2022-10-24T14:03:19.883Z,1.70
2022-10-24T14:05:59.985Z,1.02
2022-10-24T14:08:59.660Z,1.13
2022-10-24T14:11:39.260Z,1.52
2022-10-24T14:14:39.963Z,1.65
2022-10-24T14:17:29.159Z,1.02
2022-10-24T14:20:09.668Z,1.20
2022-10-24T14:22:41.125Z,1.40
2022-10-24T14:25:24.339Z,1.20
2022-10-24T14:27:59.498Z,1.45
2022-10-24T14:30:34.310Z,1.53
2022-10-24T14:33:41.693Z,1.83
2022-10-24T14:36:14.120Z,1.13
2022-10-24T14:38:45.966Z,1.67
2022-10-24T14:41:19.545Z,1.02
2022-10-24T14:43:50.914Z,2.17
2022-10-24T14:46:32.521Z,1.58
2022-10-24T14:49:28.184Z,1.30
2022-10-24T14:52:11.078Z,1.77
2022-10-24T14:54:50.588Z,1.17
2022-10-24T14:57:23.039Z,1.52
2022-10-24T14:59:56.538Z,1.13
2022-10-24T15:02:36.475Z,0.90
2022-10-24T15:05:28.905Z,1.10
2022-10-24T15:08:24.946Z,1.25
2022-10-24T15:11:15.598Z,0.80
2022-10-24T15:13:59.987Z,1.30
2022-10-24T15:16:41.904Z,1.27
2022-10-24T15:19:18.029Z,1.50
2022-10-24T15:21:49.415Z,1.38
2022-10-24T15:24:25.489Z,1.20
2022-10-24T15:29:41.724Z,1.30
2022-10-24T15:32:13.043Z,1.80
2022-10-24T15:34:44.315Z,1.27
2022-10-24T15:37:21.105Z,1.92
2022-10-24T15:39:53.418Z,1.20
2022-10-24T15:42:24.737Z,1.58
2022-10-24T15:44:56.003Z,2.03
2022-10-24T15:47:27.293Z,1.25
2022-10-24T15:49:58.832Z,1.92
2022-10-24T15:52:30.114Z,1.27
2022-10-24T15:55:01.592Z,1.70
2022-10-24T15:57:32.893Z,1.50
2022-10-24T16:00:04.583Z,1.10
2022-10-24T16:02:35.888Z,1.90
2022-10-24T16:05:13.611Z,1.30
2022-10-24T16:07:45.319Z,1.52
2022-10-24T16:10:19.622Z,1.60
2022-10-24T16:12:51.186Z,1.10
2022-10-24T16:15:25.222Z,1.58
2022-10-24T16:17:56.497Z,1.85
2022-10-24T16:20:27.903Z,1.98
2022-10-24T16:22:59.278Z,2.87
2022-10-24T16:25:34.621Z,1.50
2022-10-24T16:28:07.413Z,1.90
2022-10-24T16:30:40.488Z,1.50
2022-10-24T16:33:12.754Z,2.03
2022-10-24T16:35:44.157Z,1.40
2022-10-24T16:38:15.758Z,1.40
2022-10-24T16:40:48.551Z,1.70
2022-10-24T16:43:20.367Z,1.97
2022-10-24T16:46:00.259Z,2.40
2022-10-24T16:48:31.592Z,1.83
2022-10-24T16:51:03.026Z,2.10
2022-10-24T16:53:34.815Z,1.43
2022-10-24T16:56:09.461Z,1.00
2022-10-24T16:58:41.276Z,1.40
2022-10-24T17:01:14.938Z,1.50
2022-10-24T17:03:46.513Z,1.10
2022-10-24T17:06:18.097Z,1.30
2022-10-24T17:08:49.650Z,1.73
2022-10-24T17:11:43.882Z,1.67
2022-10-24T17:14:14.202Z,1.40
2022-10-24T17:16:45.862Z,1.20
2022-10-24T17:19:17.802Z,1.50
2022-10-24T17:21:51.225Z,1.60
2022-10-24T17:24:25.718Z,1.40
2022-10-24T17:26:57.604Z,1.23
2022-10-24T17:29:32.845Z,1.30
2022-10-24T17:32:06.063Z,1.45
2022-10-24T17:34:37.839Z,1.33
2022-10-24T17:37:20.493Z,1.80
2022-10-24T17:40:02.110Z,1.50
2022-10-24T17:42:34.381Z,1.17
2022-10-24T17:45:06.810Z,1.40
2022-10-24T17:47:38.276Z,1.60
2022-10-24T17:50:10.608Z,1.60
2022-10-24T17:52:43.498Z,1.57
2022-10-24T17:55:34.391Z,1.90
2022-10-24T17:58:11.852Z,1.63
2022-10-24T18:00:44.090Z,1.80
2022-10-24T18:03:15.479Z,1.73
2022-10-24T18:05:46.881Z,1.50
2022-10-24T18:08:18.137Z,1.90
2022-10-24T18:10:50.142Z,1.53
2022-10-24T18:13:21.466Z,1.60
2022-10-24T18:15:52.840Z,1.73
2022-10-24T18:18:24.503Z,1.90
2022-10-24T18:21:08.754Z,1.70
2022-10-24T18:23:40.554Z,1.67
2022-10-24T18:26:15.113Z,2.20
2022-10-24T18:28:48.943Z,1.77
2022-10-24T18:31:25.923Z,1.73
2022-10-24T18:34:06.088Z,1.70
2022-10-24T18:36:38.908Z,1.50
2022-10-24T18:39:10.199Z,2.10
2022-10-24T18:42:29.930Z,1.50
2022-10-24T18:45:01.656Z,2.47
2022-10-24T18:47:33.451Z,2.30
2022-10-24T18:50:05.502Z,2.10
2022-10-24T18:52:48.378Z,2.07
2022-10-24T18:55:25.143Z,1.60
2022-10-24T18:57:57.453Z,1.67
2022-10-24T19:00:31.243Z,1.67
2022-10-24T19:03:31.273Z,2.03
2022-10-24T19:06:24.501Z,1.67
2022-10-24T19:08:55.939Z,3.50
2022-10-24T19:11:27.338Z,2.77
2022-10-24T19:13:58.754Z,1.80
2022-10-24T19:16:32.393Z,2.63
2022-10-24T19:19:04.164Z,1.97
2022-10-24T19:21:35.454Z,2.30
2022-10-24T19:24:06.997Z,2.23
2022-10-24T19:26:38.298Z,2.47
2022-10-24T19:29:09.598Z,2.07
2022-10-24T19:31:41.066Z,2.07
2022-10-24T19:34:12.515Z,2.00
2022-10-24T19:36:43.821Z,2.83
2022-10-24T19:39:15.140Z,2.30
2022-10-24T19:41:46.422Z,2.37
2022-10-24T19:44:18.105Z,2.13
2022-10-24T19:46:49.468Z,2.30
2022-10-24T19:49:20.743Z,2.17
2022-10-24T19:51:52.304Z,2.40
2022-10-24T19:54:24.504Z,2.03
2022-10-24T19:56:55.869Z,1.83
2022-10-24T19:59:31.668Z,2.23
2022-10-24T20:02:06.471Z,2.03
2022-10-24T20:04:40.112Z,2.10
2022-10-24T20:07:12.711Z,2.07
2022-10-24T20:09:44.468Z,2.57
2022-10-24T20:12:15.875Z,2.90
2022-10-24T20:14:47.183Z,2.33
2022-10-24T20:17:19.152Z,2.10
2022-10-24T20:19:50.474Z,2.27
2022-10-24T20:22:21.741Z,1.87
2022-10-24T20:24:53.021Z,2.43
2022-10-24T20:27:24.815Z,2.60
2022-10-24T20:29:56.359Z,2.50
2022-10-24T20:32:27.617Z,3.03
2022-10-24T20:34:58.950Z,3.07
2022-10-24T20:37:30.474Z,2.23
2022-10-24T20:40:01.745Z,2.60
2022-10-24T20:42:33.088Z,2.77
2022-10-24T20:45:04.819Z,2.10
2022-10-24T20:47:36.631Z,2.63
2022-10-24T20:50:08.504Z,2.53
2022-10-24T20:52:39.854Z,2.50
2022-10-24T20:55:19.850Z,3.13
2022-10-24T20:58:02.445Z,2.07
2022-10-24T21:00:33.765Z,2.47
2022-10-24T21:03:05.150Z,2.20
2022-10-24T21:05:36.418Z,2.10
2022-10-24T21:08:07.681Z,2.83
2022-10-24T21:10:38.939Z,2.40
2022-10-24T21:13:10.200Z,2.27
2022-10-24T21:15:41.555Z,1.93
2022-10-24T21:18:12.801Z,2.90
2022-10-24T21:20:44.076Z,2.00
2022-10-24T21:23:15.362Z,1.80
2022-10-24T21:25:46.664Z,2.27
2022-10-24T21:28:17.924Z,2.07
2022-10-24T21:30:49.197Z,2.10
2022-10-24T21:33:20.574Z,1.97
2022-10-24T21:35:51.842Z,2.00
2022-10-24T21:38:23.196Z,2.10
2022-10-24T21:41:00.724Z,2.43
2022-10-24T21:43:33.069Z,3.43
2022-10-24T21:46:08.342Z,2.00
2022-10-24T21:48:41.017Z,2.13
2022-10-24T21:51:15.947Z,2.27
2022-10-24T21:53:49.874Z,2.47
2022-10-24T21:56:23.684Z,2.47
2022-10-24T21:59:00.598Z,1.73
2022-10-24T22:01:34.960Z,2.20
2022-10-24T22:04:07.323Z,2.47
2022-10-24T22:06:39.612Z,1.97
2022-10-24T22:09:17.971Z,2.07
2022-10-24T22:11:49.696Z,1.77
2022-10-24T22:14:21.033Z,3.20
2022-10-24T22:16:52.681Z,1.73
2022-10-24T22:19:23.964Z,1.83
2022-10-24T22:21:55.398Z,2.33
2022-10-24T22:24:26.763Z,2.03
2022-10-24T22:26:58.035Z,1.90
2022-10-24T22:29:29.516Z,2.20
2022-10-24T22:32:01.058Z,2.07
2022-10-24T22:34:32.682Z,2.27
2022-10-24T22:37:12.285Z,1.90
2022-10-24T22:39:43.835Z,2.20
2022-10-24T22:42:19.333Z,2.10
2022-10-24T22:44:52.321Z,2.07
2022-10-24T22:47:36.383Z,2.10
2022-10-24T22:50:38.612Z,2.77
2022-10-24T22:53:14.814Z,2.40
2022-10-24T22:58:30.782Z,2.67
2022-10-24T23:01:11.117Z,2.50
2022-10-24T23:04:02.278Z,2.43
2022-10-24T23:06:48.537Z,3.03
2022-10-24T23:09:19.899Z,3.28
2022-10-24T23:11:51.481Z,2.77
2022-10-24T23:14:23.107Z,3.30
2022-10-24T23:17:00.359Z,2.50
2022-10-24T23:19:32.388Z,3.40
2022-10-24T23:22:23.115Z,2.50
2022-10-24T23:24:56.796Z,2.33
2022-10-24T23:27:31.659Z,2.70
2022-10-24T23:30:07.447Z,2.23
2022-10-24T23:32:39.735Z,2.95
2022-10-24T23:35:13.479Z,3.07
2022-10-24T23:37:47.351Z,2.50
2022-10-24T23:40:35.656Z,2.27
2022-10-24T23:43:15.913Z,2.33
2022-10-24T23:45:57.993Z,3.20
2022-10-24T23:48:43.803Z,2.70
2022-10-24T23:51:28.058Z,2.80
2022-10-24T23:53:59.704Z,2.77
2022-10-24T23:56:31.282Z,2.67
2022-10-24T23:59:02.579Z,2.70
